createdAt,value
2023-04-08T00:02:17.067Z,23.17
2023-04-08T00:04:45.082Z,21.87
2023-04-08T00:07:14.317Z,22.17
2023-04-08T00:09:42.335Z,16.93
2023-04-08T00:12:10.325Z,22.70
2023-04-08T00:14:41.376Z,17.67
2023-04-08T00:17:09.648Z,25.50
2023-04-08T00:19:37.521Z,18.53
2023-04-08T00:22:05.708Z,19.33
2023-04-08T00:24:35.060Z,23.80
2023-04-08T00:27:03.414Z,14.87
2023-04-08T00:29:31.364Z,23.00
2023-04-08T00:31:59.394Z,19.77
2023-04-08T00:34:27.956Z,20.40
2023-04-08T00:36:56.311Z,22.23
2023-04-08T00:39:24.120Z,22.93
2023-04-08T00:41:53.387Z,24.27
2023-04-08T00:44:21.309Z,24.10
2023-04-08T00:46:49.374Z,24.63
2023-04-08T00:49:17.504Z,22.27
2023-04-08T00:51:45.350Z,26.57
2023-04-08T00:54:15.432Z,26.10
2023-04-08T00:56:45.278Z,22.73
2023-04-08T00:59:14.769Z,30.00
2023-04-08T01:01:49.768Z,22.50
2023-04-08T01:04:27.723Z,26.93
2023-04-08T01:07:02.072Z,23.77
2023-04-08T01:09:33.869Z,23.50
2023-04-08T01:12:06.525Z,25.10
2023-04-08T01:14:40.049Z,26.93
2023-04-08T01:17:09.671Z,23.87
2023-04-08T01:19:41.532Z,21.23
2023-04-08T01:22:26.702Z,20.83
2023-04-08T01:25:02.256Z,17.10
2023-04-08T01:27:32.747Z,23.30
2023-04-08T01:30:04.343Z,21.07
2023-04-08T01:32:33.667Z,20.20
2023-04-08T01:35:03.308Z,19.93
2023-04-08T01:37:32.411Z,18.43
2023-04-08T01:40:02.522Z,21.10
2023-04-08T01:42:33.558Z,20.40
2023-04-08T01:45:02.613Z,14.97
2023-04-08T01:47:31.525Z,20.83
2023-04-08T01:50:00.844Z,24.00
2023-04-08T01:52:31.132Z,20.27
2023-04-08T01:54:59.107Z,18.83
2023-04-08T01:57:32.964Z,23.27
2023-04-08T02:00:03.903Z,20.37
2023-04-08T02:02:48.842Z,21.13
2023-04-08T02:05:17.648Z,24.23
2023-04-08T02:07:46.738Z,22.17
2023-04-08T02:10:14.816Z,12.60
2023-04-08T02:12:45.008Z,19.13
2023-04-08T02:15:13.882Z,25.20
2023-04-08T02:17:49.809Z,26.30
2023-04-08T02:20:25.362Z,25.40
2023-04-08T02:22:59.560Z,26.10
2023-04-08T02:25:30.580Z,29.67
2023-04-08T02:28:03.947Z,20.23
2023-04-08T02:30:33.612Z,26.70
2023-04-08T02:33:04.421Z,29.97
2023-04-08T02:35:33.434Z,30.07
2023-04-08T02:38:01.338Z,32.77
2023-04-08T02:40:31.673Z,24.50
2023-04-08T02:43:02.594Z,34.97
2023-04-08T02:45:33.596Z,33.13
2023-04-08T02:48:02.462Z,39.83
2023-04-08T02:50:30.693Z,37.97
2023-04-08T02:52:58.609Z,37.17
2023-04-08T02:55:26.580Z,31.80
2023-04-08T02:57:54.438Z,31.43
2023-04-08T03:00:23.682Z,30.87
2023-04-08T03:02:51.860Z,44.23
2023-04-08T03:05:19.949Z,36.80
2023-04-08T03:07:47.809Z,31.63
2023-04-08T03:10:15.608Z,32.83
2023-04-08T03:12:43.533Z,30.50
2023-04-08T03:15:11.598Z,37.00
2023-04-08T03:17:40.909Z,39.37
2023-04-08T03:20:09.734Z,31.17
2023-04-08T03:22:37.896Z,30.30
2023-04-08T03:25:06.523Z,30.53
2023-04-08T03:27:34.457Z,37.63
2023-04-08T03:30:02.254Z,30.37
2023-04-08T03:32:30.189Z,25.47
2023-04-08T03:34:59.339Z,38.33
2023-04-08T03:37:27.213Z,28.33
2023-04-08T03:39:56.089Z,33.37
2023-04-08T03:42:24.379Z,38.00
2023-04-08T03:44:52.209Z,37.37
2023-04-08T03:47:21.065Z,32.83
2023-04-08T03:49:49.091Z,36.13
2023-04-08T03:52:19.042Z,39.30
2023-04-08T03:54:46.864Z,36.07
2023-04-08T03:57:14.727Z,28.27
2023-04-08T03:59:42.543Z,30.37
2023-04-08T04:02:10.466Z,33.47
2023-04-08T04:04:38.611Z,30.50
2023-04-08T04:07:06.574Z,35.13
2023-04-08T04:09:35.794Z,38.13
2023-04-08T04:12:03.766Z,32.63
2023-04-08T04:14:31.585Z,31.47
2023-04-08T04:16:59.502Z,32.50
2023-04-08T04:19:31.162Z,30.70
2023-04-08T04:21:59.026Z,31.30
2023-04-08T04:24:26.874Z,26.93
2023-04-08T04:26:56.468Z,26.33
2023-04-08T04:29:25.324Z,25.03
2023-04-08T04:31:53.115Z,27.97
2023-04-08T04:34:20.980Z,18.37
2023-04-08T04:36:48.802Z,32.83
2023-04-08T04:39:16.687Z,27.67
2023-04-08T04:41:44.662Z,34.43
2023-04-08T04:44:13.862Z,21.10
2023-04-08T04:46:41.650Z,26.20
2023-04-08T04:49:09.535Z,30.17
2023-04-08T04:51:37.441Z,32.40
2023-04-08T04:54:05.360Z,31.67
2023-04-08T04:56:33.328Z,35.50
2023-04-08T04:59:01.427Z,28.43
2023-04-08T05:01:30.612Z,32.50
2023-04-08T05:03:59.272Z,36.97
2023-04-08T05:06:27.550Z,22.90
2023-04-08T05:08:55.578Z,34.77
2023-04-08T05:11:23.440Z,39.60
2023-04-08T05:13:51.400Z,36.13
2023-04-08T05:16:19.306Z,33.63
2023-04-08T05:18:48.703Z,30.90
2023-04-08T05:21:18.266Z,31.20
2023-04-08T05:23:46.179Z,33.97
2023-04-08T05:26:15.903Z,37.17
2023-04-08T05:28:44.365Z,28.73
2023-04-08T05:31:12.242Z,37.73
2023-04-08T05:33:40.386Z,40.57
2023-04-08T05:36:09.610Z,39.13
2023-04-08T05:38:37.523Z,35.07
2023-04-08T05:41:05.387Z,40.83
2023-04-08T05:43:34.066Z,41.73
2023-04-08T05:46:02.104Z,36.60
2023-04-08T05:48:29.928Z,38.23
2023-04-08T05:50:57.728Z,38.27
2023-04-08T05:53:28.482Z,42.33
2023-04-08T05:55:56.374Z,37.50
2023-04-08T05:58:24.247Z,37.60
2023-04-08T06:00:52.162Z,36.63
2023-04-08T06:03:20.812Z,34.37
2023-04-08T06:05:48.956Z,28.13
2023-04-08T06:08:16.778Z,26.07
2023-04-08T06:10:51.294Z,28.17
2023-04-08T06:13:20.945Z,29.07
2023-04-08T06:15:50.206Z,29.37
2023-04-08T06:18:18.359Z,32.77
2023-04-08T06:20:46.400Z,25.23
2023-04-08T06:23:14.297Z,28.43
2023-04-08T06:25:42.446Z,27.87
2023-04-08T06:28:11.794Z,32.33
2023-04-08T06:30:39.632Z,25.30
2023-04-08T06:33:07.502Z,30.37
2023-04-08T06:35:37.350Z,21.43
2023-04-08T06:38:05.318Z,23.03
2023-04-08T06:40:33.272Z,25.17
2023-04-08T06:43:01.226Z,26.73
2023-04-08T06:45:43.074Z,30.07
2023-04-08T06:48:12.022Z,28.37
2023-04-08T06:50:39.842Z,23.30
2023-04-08T06:53:07.729Z,28.37
2023-04-08T06:55:35.564Z,28.47
2023-04-08T06:58:03.423Z,25.63
2023-04-08T07:00:31.428Z,26.73
2023-04-08T07:03:00.810Z,33.17
2023-04-08T07:05:28.703Z,36.73
2023-04-08T07:07:56.631Z,30.60
2023-04-08T07:10:25.345Z,28.73
2023-04-08T07:12:53.522Z,28.77
2023-04-08T07:15:21.694Z,34.83
2023-04-08T07:17:49.615Z,33.57
2023-04-08T07:20:19.214Z,33.40
2023-04-08T07:22:47.084Z,36.30
2023-04-08T07:25:15.062Z,25.17
2023-04-08T07:27:42.913Z,24.07
2023-04-08T07:30:11.330Z,29.83
2023-04-08T07:32:39.171Z,31.13
2023-04-08T07:35:08.659Z,24.07
2023-04-08T07:37:37.892Z,25.90
2023-04-08T07:40:07.569Z,27.70
2023-04-08T07:42:35.392Z,21.03
2023-04-08T07:45:03.536Z,21.83
2023-04-08T07:47:31.440Z,16.33
2023-04-08T07:49:59.317Z,26.30
2023-04-08T07:52:27.376Z,28.67
2023-04-08T07:54:56.714Z,26.07
2023-04-08T07:57:24.776Z,26.63
2023-04-08T07:59:52.738Z,24.57
2023-04-08T08:02:20.741Z,28.23
2023-04-08T08:04:48.674Z,28.60
2023-04-08T08:07:16.700Z,21.60
2023-04-08T08:09:44.628Z,25.70
2023-04-08T08:12:13.884Z,29.10
2023-04-08T08:14:41.694Z,15.00
2023-04-08T08:17:09.576Z,17.73
2023-04-08T08:19:37.387Z,22.03
2023-04-08T08:22:05.284Z,23.77
2023-04-08T08:24:33.091Z,21.83
2023-04-08T08:27:01.190Z,28.27
2023-04-08T08:29:30.400Z,24.53
2023-04-08T08:31:58.234Z,29.07
2023-04-08T08:34:26.051Z,28.20
2023-04-08T08:36:54.296Z,18.23
2023-04-08T08:39:22.323Z,26.40
2023-04-08T08:41:50.407Z,27.37
2023-04-08T08:44:18.344Z,27.53
2023-04-08T08:46:48.238Z,16.73
2023-04-08T08:49:16.432Z,28.87
2023-04-08T08:51:46.517Z,27.33
2023-04-08T08:54:15.938Z,24.50
2023-04-08T08:56:43.974Z,34.87
2023-04-08T08:59:11.845Z,30.00
2023-04-08T09:01:41.224Z,26.80
2023-04-08T09:04:14.295Z,31.80
2023-04-08T09:06:43.054Z,29.17
2023-04-08T09:09:13.522Z,30.27
2023-04-08T09:11:42.596Z,33.27
2023-04-08T09:14:24.504Z,34.50
2023-04-08T09:16:53.230Z,18.37
2023-04-08T09:19:22.601Z,29.27
2023-04-08T09:22:06.343Z,33.53
2023-04-08T09:24:34.594Z,30.00
2023-04-08T09:27:02.474Z,25.10
2023-04-08T09:29:33.849Z,27.57
2023-04-08T09:32:03.384Z,28.70
2023-04-08T09:34:34.493Z,25.00
2023-04-08T09:37:03.691Z,26.03
2023-04-08T09:39:32.388Z,28.03
2023-04-08T09:42:03.762Z,26.70
2023-04-08T09:44:34.488Z,16.13
2023-04-08T09:47:09.354Z,22.53
2023-04-08T09:49:44.646Z,31.07
2023-04-08T09:52:16.581Z,23.47
2023-04-08T09:54:55.534Z,29.23
2023-04-08T09:57:29.925Z,31.00
2023-04-08T10:00:05.334Z,28.53
2023-04-08T10:02:50.453Z,27.80
2023-04-08T10:05:21.281Z,21.53
2023-04-08T10:07:51.269Z,24.77
2023-04-08T10:10:19.842Z,24.67
2023-04-08T10:12:47.883Z,28.17
2023-04-08T10:15:30.484Z,26.97
2023-04-08T10:18:35.097Z,30.33
2023-04-08T10:21:03.549Z,32.73
2023-04-08T10:23:54.570Z,34.60
2023-04-08T10:26:36.658Z,31.27
2023-04-08T10:29:34.933Z,27.73
2023-04-08T10:32:02.956Z,32.20
2023-04-08T10:34:32.223Z,27.97
2023-04-08T10:37:02.112Z,26.03
2023-04-08T10:39:31.344Z,28.17
2023-04-08T10:41:59.203Z,32.73
2023-04-08T10:44:27.686Z,23.20
2023-04-08T10:46:56.349Z,27.47
2023-04-08T10:49:33.152Z,27.43
2023-04-08T10:52:07.489Z,27.50
2023-04-08T10:54:35.527Z,27.17
2023-04-08T10:57:03.552Z,26.63
2023-04-08T10:59:33.245Z,27.67
2023-04-08T11:02:02.454Z,27.37
2023-04-08T11:04:30.812Z,16.50
2023-04-08T11:06:59.086Z,24.33
2023-04-08T11:09:28.362Z,24.90
2023-04-08T11:11:56.576Z,25.07
2023-04-08T11:14:26.846Z,27.90
2023-04-08T11:16:54.794Z,23.27
2023-04-08T11:19:22.800Z,30.70
2023-04-08T11:21:52.563Z,24.53
2023-04-08T11:24:22.268Z,22.80
2023-04-08T11:26:51.839Z,23.47
2023-04-08T11:29:20.059Z,20.73
2023-04-08T11:31:49.565Z,26.70
2023-04-08T11:34:24.663Z,22.60
2023-04-08T11:36:53.277Z,21.83
2023-04-08T11:39:24.203Z,24.90
2023-04-08T11:41:53.530Z,22.20
2023-04-08T11:44:21.660Z,25.40
2023-04-08T11:46:55.249Z,21.60
2023-04-08T11:49:23.191Z,21.73
2023-04-08T11:52:00.100Z,22.60
2023-04-08T11:54:28.799Z,23.73
2023-04-08T11:56:59.024Z,26.13
2023-04-08T11:59:29.510Z,22.47
2023-04-08T12:01:58.786Z,21.30
2023-04-08T12:04:26.791Z,26.03
2023-04-08T12:06:56.285Z,25.17
2023-04-08T12:09:25.608Z,22.20
2023-04-08T12:11:53.416Z,29.60
2023-04-08T12:14:26.818Z,24.87
2023-04-08T12:16:56.020Z,24.90
2023-04-08T12:19:23.816Z,17.57
2023-04-08T12:21:51.783Z,15.03
2023-04-08T12:24:19.985Z,25.77
2023-04-08T12:26:47.818Z,27.57
2023-04-08T12:29:15.760Z,25.17
2023-04-08T12:31:45.040Z,26.63
2023-04-08T12:34:13.253Z,23.93
2023-04-08T12:36:41.858Z,26.90
2023-04-08T12:39:10.055Z,22.63
2023-04-08T12:41:37.935Z,24.40
2023-04-08T12:44:06.515Z,26.83
2023-04-08T12:46:34.745Z,23.50
2023-04-08T12:49:05.400Z,19.17
2023-04-08T12:51:34.134Z,24.17
2023-04-08T12:54:03.277Z,22.07
2023-04-08T12:56:31.539Z,22.03
2023-04-08T12:58:59.517Z,21.37
2023-04-08T13:01:27.671Z,20.20
2023-04-08T13:03:56.314Z,20.20
2023-04-08T13:06:25.872Z,26.07
2023-04-08T13:08:53.792Z,27.23
2023-04-08T13:11:22.184Z,24.00
2023-04-08T13:13:50.420Z,23.63
2023-04-08T13:16:18.423Z,23.87
2023-04-08T13:18:46.553Z,23.53
2023-04-08T13:21:14.383Z,28.63
2023-04-08T13:23:43.557Z,22.93
2023-04-08T13:26:11.524Z,18.27
2023-04-08T13:28:50.107Z,23.20
2023-04-08T13:31:24.424Z,24.63
2023-04-08T13:33:54.517Z,26.00
2023-04-08T13:36:24.283Z,22.90
2023-04-08T13:38:53.723Z,24.70
2023-04-08T13:41:22.022Z,23.13
2023-04-08T13:43:50.325Z,25.00
2023-04-08T13:46:18.629Z,25.77
2023-04-08T13:48:46.845Z,20.90
2023-04-08T13:51:14.843Z,23.50
2023-04-08T13:53:42.675Z,22.73
2023-04-08T13:56:11.876Z,23.27
2023-04-08T13:58:39.713Z,24.83
2023-04-08T14:01:07.662Z,24.20
2023-04-08T14:03:35.582Z,26.43
2023-04-08T14:06:03.438Z,26.83
2023-04-08T14:08:31.528Z,24.87
2023-04-08T14:10:59.397Z,27.13
2023-04-08T14:13:28.611Z,24.50
2023-04-08T14:15:58.262Z,19.93
2023-04-08T14:18:26.350Z,22.33
2023-04-08T14:20:54.269Z,23.07
2023-04-08T14:23:22.140Z,23.47
2023-04-08T14:25:50.164Z,27.30
2023-04-08T14:28:17.962Z,26.20
2023-04-08T14:30:47.443Z,22.23
2023-04-08T14:33:15.417Z,16.90
2023-04-08T14:35:43.362Z,23.63
2023-04-08T14:38:11.302Z,26.10
2023-04-08T14:40:39.175Z,20.73
2023-04-08T14:43:07.329Z,19.73
2023-04-08T14:45:35.509Z,22.57
2023-04-08T14:48:04.956Z,16.07
2023-04-08T14:50:32.864Z,20.97
2023-04-08T14:53:01.067Z,20.70
2023-04-08T14:55:30.000Z,20.83
2023-04-08T14:57:59.839Z,23.60
2023-04-08T15:00:28.916Z,22.33
2023-04-08T15:02:56.865Z,16.30
2023-04-08T15:05:26.519Z,23.87
2023-04-08T15:07:55.424Z,22.07
2023-04-08T15:10:23.327Z,13.93
2023-04-08T15:12:51.098Z,22.57
2023-04-08T15:15:19.027Z,20.83
2023-04-08T15:17:46.957Z,23.63
2023-04-08T15:20:14.876Z,19.73
2023-04-08T15:22:44.030Z,20.37
2023-04-08T15:25:11.945Z,26.70
2023-04-08T15:27:40.189Z,22.83
2023-04-08T15:30:11.244Z,22.00
2023-04-08T15:32:41.228Z,27.60
2023-04-08T15:35:10.199Z,22.10
2023-04-08T15:37:38.159Z,24.63
2023-04-08T15:40:09.050Z,23.40
2023-04-08T15:42:36.914Z,24.40
2023-04-08T15:45:05.279Z,22.17
2023-04-08T15:47:34.330Z,21.33
2023-04-08T15:50:02.341Z,20.83
2023-04-08T15:52:30.272Z,20.13
2023-04-08T15:54:58.787Z,23.80
2023-04-08T15:57:28.223Z,25.87
2023-04-08T15:59:56.189Z,22.73
2023-04-08T16:02:25.528Z,24.37
2023-04-08T16:04:53.519Z,24.97
2023-04-08T16:07:21.375Z,23.10
2023-04-08T16:09:49.169Z,20.13
2023-04-08T16:12:17.086Z,23.47
2023-04-08T16:14:47.764Z,21.60
2023-04-08T16:17:16.389Z,21.90
2023-04-08T16:19:44.217Z,23.30
2023-04-08T16:22:12.058Z,24.93
2023-04-08T16:24:39.898Z,22.63
2023-04-08T16:27:07.776Z,25.33
2023-04-08T16:29:35.832Z,22.20
2023-04-08T16:32:05.258Z,23.57
2023-04-08T16:34:33.188Z,23.47
2023-04-08T16:37:01.260Z,26.07
2023-04-08T16:39:29.260Z,21.03
2023-04-08T16:41:57.164Z,26.27
2023-04-08T16:44:25.284Z,27.07
2023-04-08T16:46:53.930Z,25.73
2023-04-08T16:49:23.144Z,29.43
2023-04-08T16:51:50.995Z,32.97
2023-04-08T16:54:18.808Z,30.20
2023-04-08T16:56:46.682Z,27.33
2023-04-08T16:59:14.652Z,28.33
2023-04-08T17:01:42.623Z,30.73
2023-04-08T17:04:10.606Z,32.27
2023-04-08T17:06:41.379Z,31.83
2023-04-08T17:09:09.518Z,34.70
2023-04-08T17:11:37.381Z,28.57
2023-04-08T17:14:05.520Z,32.50
2023-04-08T17:16:33.376Z,32.60
2023-04-08T17:19:01.311Z,38.57
2023-04-08T17:21:29.201Z,32.13
2023-04-08T17:23:58.454Z,29.40
2023-04-08T17:26:26.266Z,34.17
2023-04-08T17:28:54.451Z,32.57
2023-04-08T17:31:22.615Z,31.50
2023-04-08T17:33:51.166Z,30.43
2023-04-08T17:36:19.223Z,48.10
2023-04-08T17:38:49.294Z,31.80
2023-04-08T17:41:29.814Z,40.67
2023-04-08T17:44:03.234Z,35.50
2023-04-08T17:46:33.385Z,41.47
2023-04-08T17:49:01.347Z,42.23
2023-04-08T17:51:30.172Z,46.90
2023-04-08T17:53:58.064Z,46.80
2023-04-08T17:56:27.709Z,48.97
2023-04-08T17:58:55.824Z,58.73
2023-04-08T18:01:23.955Z,50.43
2023-04-08T18:03:52.311Z,53.30
2023-04-08T18:06:20.424Z,50.87
2023-04-08T18:08:48.535Z,49.27
2023-04-08T18:11:16.443Z,57.13
2023-04-08T18:13:46.019Z,52.80
2023-04-08T18:16:17.847Z,51.53
2023-04-08T18:18:45.819Z,54.67
2023-04-08T18:21:14.935Z,49.30
2023-04-08T18:23:42.940Z,53.10
2023-04-08T18:26:10.939Z,43.10
2023-04-08T18:28:38.856Z,43.07
2023-04-08T18:31:08.098Z,44.07
2023-04-08T18:33:36.251Z,47.00
2023-04-08T18:36:08.141Z,57.77
2023-04-08T18:38:36.697Z,45.27
2023-04-08T18:41:04.819Z,83.77
2023-04-08T18:43:33.069Z,54.83
2023-04-08T18:46:01.321Z,51.17
2023-04-08T18:48:30.691Z,49.40
2023-04-08T18:50:58.610Z,52.23
2023-04-08T18:53:26.546Z,52.67
2023-04-08T18:55:55.017Z,53.93
2023-04-08T18:58:22.909Z,50.13
2023-04-08T19:00:50.929Z,52.93
2023-04-08T19:03:18.934Z,48.33
2023-04-08T19:05:48.260Z,53.83
2023-04-08T19:08:16.059Z,53.43
2023-04-08T19:10:43.946Z,54.20
2023-04-08T19:13:11.800Z,51.83
2023-04-08T19:15:39.829Z,61.33
2023-04-08T19:18:07.725Z,53.77
2023-04-08T19:20:35.616Z,50.20
2023-04-08T19:23:05.721Z,54.50
2023-04-08T19:25:33.942Z,51.97
2023-04-08T19:28:02.051Z,54.63
2023-04-08T19:30:29.911Z,56.47
2023-04-08T19:32:58.574Z,51.23
2023-04-08T19:35:26.590Z,52.77
2023-04-08T19:37:54.392Z,59.07
2023-04-08T19:40:23.654Z,56.20
2023-04-08T19:42:51.616Z,55.73
2023-04-08T19:45:19.620Z,56.30
2023-04-08T19:47:47.650Z,51.50
2023-04-08T19:50:15.472Z,52.60
2023-04-08T19:52:43.387Z,56.27
2023-04-08T19:55:11.436Z,60.33
2023-04-08T19:57:41.027Z,68.03
2023-04-08T20:00:10.858Z,72.07
2023-04-08T20:02:40.210Z,80.10
2023-04-08T20:05:14.454Z,78.53
2023-04-08T20:07:42.498Z,83.37
2023-04-08T20:10:11.040Z,84.20
2023-04-08T20:12:41.326Z,90.23
2023-04-08T20:15:22.770Z,85.90
2023-04-08T20:17:52.990Z,89.17
2023-04-08T20:20:21.198Z,87.47
2023-04-08T20:22:49.380Z,93.23
2023-04-08T20:25:17.219Z,95.73
2023-04-08T20:27:46.584Z,88.37
2023-04-08T20:30:14.576Z,91.20
2023-04-08T20:32:42.564Z,68.37
2023-04-08T20:35:10.886Z,65.10
2023-04-08T20:37:38.783Z,62.73
2023-04-08T20:40:08.180Z,70.67
2023-04-08T20:42:36.416Z,73.53
2023-04-08T20:45:06.545Z,62.93
2023-04-08T20:47:34.443Z,70.40
2023-04-08T20:50:02.461Z,65.73
2023-04-08T20:52:30.321Z,65.47
2023-04-08T20:54:58.250Z,67.60
2023-04-08T20:57:26.157Z,64.27
2023-04-08T20:59:54.023Z,87.53
2023-04-08T21:02:24.279Z,77.53
2023-04-08T21:04:52.478Z,70.30
2023-04-08T21:07:20.303Z,77.90
2023-04-08T21:09:49.055Z,83.53
2023-04-08T21:12:16.867Z,93.53
2023-04-08T21:14:45.989Z,93.23
2023-04-08T21:17:14.056Z,91.73
2023-04-08T21:19:43.360Z,107.77
2023-04-08T21:22:11.217Z,115.97
2023-04-08T21:24:39.003Z,95.23
2023-04-08T21:27:06.933Z,102.87
2023-04-08T21:29:34.757Z,91.00
2023-04-08T21:32:02.626Z,97.87
2023-04-08T21:34:30.966Z,86.83
2023-04-08T21:37:00.463Z,83.03
2023-04-08T21:39:28.448Z,73.10
2023-04-08T21:41:57.381Z,76.23
2023-04-08T21:44:25.611Z,81.27
2023-04-08T21:46:54.050Z,80.13
2023-04-08T21:49:21.962Z,70.90
2023-04-08T21:51:49.740Z,85.70
2023-04-08T21:54:18.910Z,83.47
2023-04-08T21:56:46.724Z,82.57
2023-04-08T21:59:14.570Z,91.00
2023-04-08T22:01:42.483Z,101.13
2023-04-08T22:04:10.978Z,98.07
2023-04-08T22:06:38.918Z,104.40
2023-04-08T22:09:07.139Z,105.73
2023-04-08T22:11:36.385Z,108.70
2023-04-08T22:14:04.251Z,113.77
2023-04-08T22:16:33.022Z,138.40
2023-04-08T22:19:01.315Z,151.17
2023-04-08T22:21:29.235Z,149.60
2023-04-08T22:23:57.066Z,128.80
2023-04-08T22:26:24.878Z,101.67
2023-04-08T22:28:54.385Z,101.43
2023-04-08T22:31:22.578Z,88.23
2023-04-08T22:33:50.466Z,93.10
2023-04-08T22:36:18.385Z,100.60
2023-04-08T22:38:46.223Z,83.73
2023-04-08T22:41:20.664Z,84.87
2023-04-08T22:43:49.006Z,76.57
2023-04-08T22:46:19.982Z,94.27
2023-04-08T22:48:49.128Z,90.97
2023-04-08T22:51:17.357Z,100.90
2023-04-08T22:53:45.444Z,106.70
2023-04-08T22:56:13.240Z,122.73
2023-04-08T22:58:41.091Z,122.17
2023-04-08T23:01:13.643Z,125.93
2023-04-08T23:03:43.010Z,123.83
2023-04-08T23:06:11.355Z,131.30
2023-04-08T23:08:39.586Z,135.10
2023-04-08T23:11:07.728Z,126.57
2023-04-08T23:13:35.706Z,128.20
2023-04-08T23:16:03.772Z,122.30
2023-04-08T23:18:31.712Z,140.60
2023-04-08T23:21:00.916Z,134.13
2023-04-08T23:23:28.910Z,125.60
2023-04-08T23:25:56.771Z,169.93
2023-04-08T23:28:24.850Z,176.50
2023-04-08T23:30:52.780Z,158.77
2023-04-08T23:33:20.849Z,196.73
2023-04-08T23:35:49.580Z,139.80
2023-04-08T23:38:18.850Z,218.00
2023-04-08T23:40:46.765Z,168.10
2023-04-08T23:43:14.854Z,251.43
2023-04-08T23:45:42.744Z,170.30
2023-04-08T23:48:10.559Z,199.13
2023-04-08T23:50:38.409Z,190.50
2023-04-08T23:53:06.248Z,331.23
2023-04-08T23:55:36.181Z,317.10
2023-04-08T23:58:04.072Z,344.70
